sensor_id;sensor_type;location;lat;lon;timestamp;temperature;humidity
52459;DHT22;38372;52.902;6.024;2023-07-09T00:02:08;20.90;98.50
52459;DHT22;38372;52.902;6.024;2023-07-09T00:04:34;20.80;98.70
52459;DHT22;38372;52.902;6.024;2023-07-09T00:07:02;20.80;98.70
52459;DHT22;38372;52.902;6.024;2023-07-09T00:09:28;20.80;98.70
52459;DHT22;38372;52.902;6.024;2023-07-09T00:11:54;20.80;98.60
52459;DHT22;38372;52.902;6.024;2023-07-09T00:14:20;20.80;98.80
52459;DHT22;38372;52.902;6.024;2023-07-09T00:16:46;20.70;98.90
52459;DHT22;38372;52.902;6.024;2023-07-09T00:19:18;20.70;99.20
52459;DHT22;38372;52.902;6.024;2023-07-09T00:21:47;20.60;99.40
52459;DHT22;38372;52.902;6.024;2023-07-09T00:24:13;20.50;99.70
52459;DHT22;38372;52.902;6.024;2023-07-09T00:26:40;20.40;99.90
52459;DHT22;38372;52.902;6.024;2023-07-09T00:29:10;20.30;99.90
52459;DHT22;38372;52.902;6.024;2023-07-09T00:31:37;20.20;99.90
52459;DHT22;38372;52.902;6.024;2023-07-09T00:34:08;20.10;99.90
52459;DHT22;38372;52.902;6.024;2023-07-09T00:36:37;20.00;99.90
52459;DHT22;38372;52.902;6.024;2023-07-09T00:39:03;20.00;99.90
52459;DHT22;38372;52.902;6.024;2023-07-09T00:41:37;19.90;99.90
52459;DHT22;38372;52.902;6.024;2023-07-09T00:44:27;19.90;99.90
52459;DHT22;38372;52.902;6.024;2023-07-09T00:49:36;19.80;99.90
52459;DHT22;38372;52.902;6.024;2023-07-09T00:54:46;19.70;99.90
52459;DHT22;38372;52.902;6.024;2023-07-09T00:57:16;19.70;99.90
52459;DHT22;38372;52.902;6.024;2023-07-09T00:59:49;19.70;99.90
52459;DHT22;38372;52.902;6.024;2023-07-09T01:02:16;19.70;99.90
52459;DHT22;38372;52.902;6.024;2023-07-09T01:04:43;19.70;99.90
52459;DHT22;38372;52.902;6.024;2023-07-09T01:07:10;19.70;99.90
52459;DHT22;38372;52.902;6.024;2023-07-09T01:09:36;19.80;99.90
52459;DHT22;38372;52.902;6.024;2023-07-09T01:12:08;19.90;99.90
52459;DHT22;38372;52.902;6.024;2023-07-09T01:14:35;20.00;99.90
52459;DHT22;38372;52.902;6.024;2023-07-09T01:17:06;20.00;99.90
52459;DHT22;38372;52.902;6.024;2023-07-09T01:19:41;20.10;99.90
52459;DHT22;38372;52.902;6.024;2023-07-09T01:22:16;20.20;99.90
52459;DHT22;38372;52.902;6.024;2023-07-09T01:27:21;20.20;99.90
52459;DHT22;38372;52.902;6.024;2023-07-09T01:29:48;20.20;99.90
52459;DHT22;38372;52.902;6.024;2023-07-09T01:32:16;20.10;99.90
52459;DHT22;38372;52.902;6.024;2023-07-09T01:34:51;20.10;99.90
52459;DHT22;38372;52.902;6.024;2023-07-09T01:37:21;20.10;99.90
52459;DHT22;38372;52.902;6.024;2023-07-09T01:39:48;20.00;99.90
52459;DHT22;38372;52.902;6.024;2023-07-09T01:42:16;19.90;99.90
52459;DHT22;38372;52.902;6.024;2023-07-09T01:44:44;19.90;99.90
52459;DHT22;38372;52.902;6.024;2023-07-09T01:47:12;19.80;99.90
52459;DHT22;38372;52.902;6.024;2023-07-09T01:49:38;19.80;99.90
52459;DHT22;38372;52.902;6.024;2023-07-09T01:52:05;19.70;99.90
52459;DHT22;38372;52.902;6.024;2023-07-09T01:54:34;19.70;99.90
52459;DHT22;38372;52.902;6.024;2023-07-09T01:57:15;19.60;99.90
52459;DHT22;38372;52.902;6.024;2023-07-09T01:59:41;19.60;99.90
52459;DHT22;38372;52.902;6.024;2023-07-09T02:02:08;19.50;99.90
52459;DHT22;38372;52.902;6.024;2023-07-09T02:04:34;19.50;99.90
52459;DHT22;38372;52.902;6.024;2023-07-09T02:07:00;19.40;99.90
52459;DHT22;38372;52.902;6.024;2023-07-09T02:09:26;19.30;99.90
52459;DHT22;38372;52.902;6.024;2023-07-09T02:11:51;19.30;99.90
52459;DHT22;38372;52.902;6.024;2023-07-09T02:14:17;19.20;99.90
52459;DHT22;38372;52.902;6.024;2023-07-09T02:16:44;19.20;99.90
52459;DHT22;38372;52.902;6.024;2023-07-09T02:19:10;19.10;99.90
52459;DHT22;38372;52.902;6.024;2023-07-09T02:21:36;19.10;99.90
52459;DHT22;38372;52.902;6.024;2023-07-09T02:24:02;19.10;99.90
52459;DHT22;38372;52.902;6.024;2023-07-09T02:26:28;19.10;99.90
52459;DHT22;38372;52.902;6.024;2023-07-09T02:28:55;19.00;99.90
52459;DHT22;38372;52.902;6.024;2023-07-09T02:31:21;19.00;99.90
52459;DHT22;38372;52.902;6.024;2023-07-09T02:33:47;19.00;99.90
52459;DHT22;38372;52.902;6.024;2023-07-09T02:36:13;19.00;99.90
52459;DHT22;38372;52.902;6.024;2023-07-09T02:38:38;19.00;99.90
52459;DHT22;38372;52.902;6.024;2023-07-09T02:41:04;19.00;99.90
52459;DHT22;38372;52.902;6.024;2023-07-09T02:43:30;18.90;99.90
52459;DHT22;38372;52.902;6.024;2023-07-09T02:45:56;18.90;99.90
52459;DHT22;38372;52.902;6.024;2023-07-09T02:48:22;18.90;99.90
52459;DHT22;38372;52.902;6.024;2023-07-09T02:50:47;18.80;99.90
52459;DHT22;38372;52.902;6.024;2023-07-09T02:53:13;18.80;99.90
52459;DHT22;38372;52.902;6.024;2023-07-09T02:55:39;18.80;99.90
52459;DHT22;38372;52.902;6.024;2023-07-09T02:58:05;18.70;99.90
52459;DHT22;38372;52.902;6.024;2023-07-09T03:00:31;18.70;99.90
52459;DHT22;38372;52.902;6.024;2023-07-09T03:02:57;18.70;99.90
52459;DHT22;38372;52.902;6.024;2023-07-09T03:05:23;18.70;99.90
52459;DHT22;38372;52.902;6.024;2023-07-09T03:07:49;18.70;99.90
52459;DHT22;38372;52.902;6.024;2023-07-09T03:10:16;18.70;99.90
52459;DHT22;38372;52.902;6.024;2023-07-09T03:12:42;18.70;99.90
52459;DHT22;38372;52.902;6.024;2023-07-09T03:15:08;18.80;99.90
52459;DHT22;38372;52.902;6.024;2023-07-09T03:17:34;18.80;99.90
52459;DHT22;38372;52.902;6.024;2023-07-09T03:19:59;18.90;99.90
52459;DHT22;38372;52.902;6.024;2023-07-09T03:22:25;19.00;99.90
52459;DHT22;38372;52.902;6.024;2023-07-09T03:24:51;19.10;99.90
52459;DHT22;38372;52.902;6.024;2023-07-09T03:27:17;19.10;99.90
52459;DHT22;38372;52.902;6.024;2023-07-09T03:29:43;19.10;99.90
52459;DHT22;38372;52.902;6.024;2023-07-09T03:32:08;19.20;99.90
52459;DHT22;38372;52.902;6.024;2023-07-09T03:34:34;19.10;99.90
52459;DHT22;38372;52.902;6.024;2023-07-09T03:37:00;19.10;99.90
52459;DHT22;38372;52.902;6.024;2023-07-09T03:39:26;19.10;99.90
52459;DHT22;38372;52.902;6.024;2023-07-09T03:41:52;19.10;99.90
52459;DHT22;38372;52.902;6.024;2023-07-09T03:44:18;19.10;99.90
52459;DHT22;38372;52.902;6.024;2023-07-09T03:46:43;19.10;99.90
52459;DHT22;38372;52.902;6.024;2023-07-09T03:49:09;19.10;99.90
52459;DHT22;38372;52.902;6.024;2023-07-09T03:51:35;19.20;99.90
52459;DHT22;38372;52.902;6.024;2023-07-09T03:54:01;19.20;99.90
52459;DHT22;38372;52.902;6.024;2023-07-09T03:56:27;19.20;99.90
52459;DHT22;38372;52.902;6.024;2023-07-09T03:58:52;19.30;99.90
52459;DHT22;38372;52.902;6.024;2023-07-09T04:01:18;19.30;99.90
52459;DHT22;38372;52.902;6.024;2023-07-09T04:03:44;19.30;99.90
52459;DHT22;38372;52.902;6.024;2023-07-09T04:06:10;19.30;99.90
52459;DHT22;38372;52.902;6.024;2023-07-09T04:08:36;19.40;99.90
52459;DHT22;38372;52.902;6.024;2023-07-09T04:11:03;19.40;99.90
52459;DHT22;38372;52.902;6.024;2023-07-09T04:13:29;19.40;99.90
52459;DHT22;38372;52.902;6.024;2023-07-09T04:15:56;19.50;99.90
52459;DHT22;38372;52.902;6.024;2023-07-09T04:18:22;19.50;99.90
52459;DHT22;38372;52.902;6.024;2023-07-09T04:20:49;19.50;99.90
52459;DHT22;38372;52.902;6.024;2023-07-09T04:23:16;19.50;99.90
52459;DHT22;38372;52.902;6.024;2023-07-09T04:25:42;19.60;99.90
52459;DHT22;38372;52.902;6.024;2023-07-09T04:28:07;19.60;99.90
52459;DHT22;38372;52.902;6.024;2023-07-09T04:30:33;19.70;99.90
52459;DHT22;38372;52.902;6.024;2023-07-09T04:32:59;19.70;99.90
52459;DHT22;38372;52.902;6.024;2023-07-09T04:35:25;19.70;99.90
52459;DHT22;38372;52.902;6.024;2023-07-09T04:37:51;19.80;99.90
52459;DHT22;38372;52.902;6.024;2023-07-09T04:40:18;19.80;99.90
52459;DHT22;38372;52.902;6.024;2023-07-09T04:42:44;19.90;99.90
52459;DHT22;38372;52.902;6.024;2023-07-09T04:45:11;20.00;99.90
52459;DHT22;38372;52.902;6.024;2023-07-09T04:47:38;20.00;99.90
52459;DHT22;38372;52.902;6.024;2023-07-09T04:50:05;20.10;99.90
52459;DHT22;38372;52.902;6.024;2023-07-09T04:52:31;20.20;99.90
52459;DHT22;38372;52.902;6.024;2023-07-09T04:54:57;20.20;99.90
52459;DHT22;38372;52.902;6.024;2023-07-09T04:57:24;20.30;99.90
52459;DHT22;38372;52.902;6.024;2023-07-09T04:59:50;20.30;99.90
52459;DHT22;38372;52.902;6.024;2023-07-09T05:02:16;20.40;99.90
52459;DHT22;38372;52.902;6.024;2023-07-09T05:04:41;20.40;99.90
52459;DHT22;38372;52.902;6.024;2023-07-09T05:07:07;20.40;99.90
52459;DHT22;38372;52.902;6.024;2023-07-09T05:09:33;20.40;99.90
52459;DHT22;38372;52.902;6.024;2023-07-09T05:12:00;20.50;99.90
52459;DHT22;38372;52.902;6.024;2023-07-09T05:14:27;20.50;99.90
52459;DHT22;38372;52.902;6.024;2023-07-09T05:16:53;20.50;99.90
52459;DHT22;38372;52.902;6.024;2023-07-09T05:19:19;20.50;99.90
52459;DHT22;38372;52.902;6.024;2023-07-09T05:21:45;20.60;99.90
52459;DHT22;38372;52.902;6.024;2023-07-09T05:24:11;20.60;99.90
52459;DHT22;38372;52.902;6.024;2023-07-09T05:26:37;20.60;99.90
52459;DHT22;38372;52.902;6.024;2023-07-09T05:29:04;20.60;99.90
52459;DHT22;38372;52.902;6.024;2023-07-09T05:31:32;20.60;99.90
52459;DHT22;38372;52.902;6.024;2023-07-09T05:33:59;20.60;99.90
52459;DHT22;38372;52.902;6.024;2023-07-09T05:36:27;20.70;99.90
52459;DHT22;38372;52.902;6.024;2023-07-09T05:38:54;20.70;99.90
52459;DHT22;38372;52.902;6.024;2023-07-09T05:41:20;20.70;99.90
52459;DHT22;38372;52.902;6.024;2023-07-09T05:43:46;20.80;99.90
52459;DHT22;38372;52.902;6.024;2023-07-09T05:46:13;20.80;99.90
52459;DHT22;38372;52.902;6.024;2023-07-09T05:48:40;20.90;99.90
52459;DHT22;38372;52.902;6.024;2023-07-09T05:51:06;20.90;99.90
52459;DHT22;38372;52.902;6.024;2023-07-09T05:53:32;21.00;99.90
52459;DHT22;38372;52.902;6.024;2023-07-09T05:55:58;21.10;99.90
52459;DHT22;38372;52.902;6.024;2023-07-09T05:58:24;21.20;99.90
52459;DHT22;38372;52.902;6.024;2023-07-09T06:00:51;21.30;99.90
52459;DHT22;38372;52.902;6.024;2023-07-09T06:03:23;21.40;99.90
52459;DHT22;38372;52.902;6.024;2023-07-09T06:05:49;21.50;99.90
52459;DHT22;38372;52.902;6.024;2023-07-09T06:08:16;21.70;99.90
52459;DHT22;38372;52.902;6.024;2023-07-09T06:10:59;21.90;99.90
52459;DHT22;38372;52.902;6.024;2023-07-09T06:13:26;22.00;99.90
52459;DHT22;38372;52.902;6.024;2023-07-09T06:15:54;22.20;99.90
52459;DHT22;38372;52.902;6.024;2023-07-09T06:18:21;22.30;99.90
52459;DHT22;38372;52.902;6.024;2023-07-09T06:20:53;22.40;99.90
52459;DHT22;38372;52.902;6.024;2023-07-09T06:23:20;22.50;99.90
52459;DHT22;38372;52.902;6.024;2023-07-09T06:25:46;22.50;99.90
52459;DHT22;38372;52.902;6.024;2023-07-09T06:28:20;22.60;99.90
52459;DHT22;38372;52.902;6.024;2023-07-09T06:30:47;22.70;99.90
52459;DHT22;38372;52.902;6.024;2023-07-09T06:33:14;22.90;99.90
52459;DHT22;38372;52.902;6.024;2023-07-09T06:35:52;23.10;99.90
52459;DHT22;38372;52.902;6.024;2023-07-09T06:38:18;23.30;99.90
52459;DHT22;38372;52.902;6.024;2023-07-09T06:40:44;23.50;99.90
52459;DHT22;38372;52.902;6.024;2023-07-09T06:43:11;23.70;99.90
52459;DHT22;38372;52.902;6.024;2023-07-09T06:45:37;24.00;99.90
52459;DHT22;38372;52.902;6.024;2023-07-09T06:48:03;24.20;99.90
52459;DHT22;38372;52.902;6.024;2023-07-09T06:50:32;24.20;99.90
52459;DHT22;38372;52.902;6.024;2023-07-09T06:52:58;24.20;99.90
52459;DHT22;38372;52.902;6.024;2023-07-09T06:55:24;24.30;99.90
52459;DHT22;38372;52.902;6.024;2023-07-09T06:57:51;24.50;99.90
52459;DHT22;38372;52.902;6.024;2023-07-09T07:00:16;24.70;99.90
52459;DHT22;38372;52.902;6.024;2023-07-09T07:02:42;24.90;99.90
52459;DHT22;38372;52.902;6.024;2023-07-09T07:05:08;25.10;99.90
52459;DHT22;38372;52.902;6.024;2023-07-09T07:07:34;25.20;99.90
52459;DHT22;38372;52.902;6.024;2023-07-09T07:10:00;25.40;99.90
52459;DHT22;38372;52.902;6.024;2023-07-09T07:12:28;25.50;99.90
52459;DHT22;38372;52.902;6.024;2023-07-09T07:14:55;25.60;99.90
52459;DHT22;38372;52.902;6.024;2023-07-09T07:17:22;25.80;99.90
52459;DHT22;38372;52.902;6.024;2023-07-09T07:19:49;25.90;99.90
52459;DHT22;38372;52.902;6.024;2023-07-09T07:22:15;26.10;99.90
52459;DHT22;38372;52.902;6.024;2023-07-09T07:24:41;26.30;99.90
52459;DHT22;38372;52.902;6.024;2023-07-09T07:27:08;26.50;99.90
52459;DHT22;38372;52.902;6.024;2023-07-09T07:29:34;26.60;99.90
52459;DHT22;38372;52.902;6.024;2023-07-09T07:32:00;26.80;99.90
52459;DHT22;38372;52.902;6.024;2023-07-09T07:34:26;27.10;99.90
52459;DHT22;38372;52.902;6.024;2023-07-09T07:36:52;27.20;99.90
52459;DHT22;38372;52.902;6.024;2023-07-09T07:39:18;27.30;99.90
52459;DHT22;38372;52.902;6.024;2023-07-09T07:41:44;27.40;99.90
52459;DHT22;38372;52.902;6.024;2023-07-09T07:44:10;27.60;99.90
52459;DHT22;38372;52.902;6.024;2023-07-09T07:46:35;27.70;99.90
52459;DHT22;38372;52.902;6.024;2023-07-09T07:49:01;27.80;99.90
52459;DHT22;38372;52.902;6.024;2023-07-09T07:51:27;27.90;99.90
52459;DHT22;38372;52.902;6.024;2023-07-09T07:53:54;27.90;99.90
52459;DHT22;38372;52.902;6.024;2023-07-09T07:56:20;28.10;99.90
52459;DHT22;38372;52.902;6.024;2023-07-09T07:58:46;28.10;99.90
52459;DHT22;38372;52.902;6.024;2023-07-09T08:01:12;28.30;99.80
52459;DHT22;38372;52.902;6.024;2023-07-09T08:03:39;28.40;99.70
52459;DHT22;38372;52.902;6.024;2023-07-09T08:06:05;28.60;99.70
52459;DHT22;38372;52.902;6.024;2023-07-09T08:08:32;28.70;99.40
52459;DHT22;38372;52.902;6.024;2023-07-09T08:11:04;28.90;99.40
52459;DHT22;38372;52.902;6.024;2023-07-09T08:13:37;28.90;99.00
52459;DHT22;38372;52.902;6.024;2023-07-09T08:16:05;28.90;99.20
52459;DHT22;38372;52.902;6.024;2023-07-09T08:18:33;28.90;99.20
52459;DHT22;38372;52.902;6.024;2023-07-09T08:21:00;28.90;99.40
52459;DHT22;38372;52.902;6.024;2023-07-09T08:23:26;29.10;99.30
52459;DHT22;38372;52.902;6.024;2023-07-09T08:25:56;29.20;99.10
52459;DHT22;38372;52.902;6.024;2023-07-09T08:28:22;29.30;98.80
52459;DHT22;38372;52.902;6.024;2023-07-09T08:30:51;29.40;98.80
52459;DHT22;38372;52.902;6.024;2023-07-09T08:33:17;29.50;98.80
52459;DHT22;38372;52.902;6.024;2023-07-09T08:35:43;29.60;98.70
52459;DHT22;38372;52.902;6.024;2023-07-09T08:38:09;29.60;98.60
52459;DHT22;38372;52.902;6.024;2023-07-09T08:40:39;29.70;98.60
52459;DHT22;38372;52.902;6.024;2023-07-09T08:49:21;30.00;98.00
52459;DHT22;38372;52.902;6.024;2023-07-09T08:51:48;30.00;98.10
52459;DHT22;38372;52.902;6.024;2023-07-09T08:54:25;29.90;98.20
52459;DHT22;38372;52.902;6.024;2023-07-09T08:56:52;29.90;97.60
52459;DHT22;38372;52.902;6.024;2023-07-09T08:59:19;29.70;97.40
52459;DHT22;38372;52.902;6.024;2023-07-09T09:01:51;29.40;97.60
52459;DHT22;38372;52.902;6.024;2023-07-09T09:04:34;29.40;98.30
52459;DHT22;38372;52.902;6.024;2023-07-09T09:07:26;29.70;98.20
52459;DHT22;38372;52.902;6.024;2023-07-09T09:09:58;30.00;97.80
52459;DHT22;38372;52.902;6.024;2023-07-09T09:15:22;30.30;97.30
52459;DHT22;38372;52.902;6.024;2023-07-09T09:17:52;30.40;97.10
52459;DHT22;38372;52.902;6.024;2023-07-09T09:20:22;30.80;97.30
52459;DHT22;38372;52.902;6.024;2023-07-09T09:23:00;31.00;96.70
52459;DHT22;38372;52.902;6.024;2023-07-09T09:25:37;31.00;95.70
52459;DHT22;38372;52.902;6.024;2023-07-09T09:28:06;30.90;95.40
52459;DHT22;38372;52.902;6.024;2023-07-09T09:30:33;30.80;95.20
52459;DHT22;38372;52.902;6.024;2023-07-09T09:33:06;30.70;94.60
52459;DHT22;38372;52.902;6.024;2023-07-09T09:35:43;30.80;94.30
52459;DHT22;38372;52.902;6.024;2023-07-09T09:38:12;31.00;93.80
52459;DHT22;38372;52.902;6.024;2023-07-09T09:40:38;31.20;94.20
52459;DHT22;38372;52.902;6.024;2023-07-09T09:43:16;31.50;94.10
52459;DHT22;38372;52.902;6.024;2023-07-09T09:45:44;31.80;93.70
52459;DHT22;38372;52.902;6.024;2023-07-09T09:48:20;32.10;93.40
52459;DHT22;38372;52.902;6.024;2023-07-09T09:50:47;32.30;92.80
52459;DHT22;38372;52.902;6.024;2023-07-09T09:53:21;32.40;92.60
52459;DHT22;38372;52.902;6.024;2023-07-09T09:55:49;32.40;91.80
52459;DHT22;38372;52.902;6.024;2023-07-09T09:58:17;32.40;92.30
52459;DHT22;38372;52.902;6.024;2023-07-09T10:00:50;32.30;92.40
52459;DHT22;38372;52.902;6.024;2023-07-09T10:03:17;32.40;92.00
52459;DHT22;38372;52.902;6.024;2023-07-09T10:05:47;32.50;92.00
52459;DHT22;38372;52.902;6.024;2023-07-09T10:08:45;32.40;92.00
52459;DHT22;38372;52.902;6.024;2023-07-09T10:11:35;32.50;92.20
52459;DHT22;38372;52.902;6.024;2023-07-09T10:14:18;32.90;91.80
52459;DHT22;38372;52.902;6.024;2023-07-09T10:16:51;33.00;91.50
52459;DHT22;38372;52.902;6.024;2023-07-09T10:19:25;33.20;91.60
52459;DHT22;38372;52.902;6.024;2023-07-09T10:22:17;33.30;91.20
52459;DHT22;38372;52.902;6.024;2023-07-09T10:25:10;33.30;90.20
52459;DHT22;38372;52.902;6.024;2023-07-09T10:37:17;33.30;90.70
52459;DHT22;38372;52.902;6.024;2023-07-09T10:39:37;33.50;90.70
52459;DHT22;38372;52.902;6.024;2023-07-09T10:42:04;33.30;90.00
52459;DHT22;38372;52.902;6.024;2023-07-09T10:44:37;33.10;89.80
52459;DHT22;38372;52.902;6.024;2023-07-09T10:47:27;33.10;89.20
52459;DHT22;38372;52.902;6.024;2023-07-09T10:49:54;33.00;88.70
52459;DHT22;38372;52.902;6.024;2023-07-09T10:52:26;32.80;89.40
52459;DHT22;38372;52.902;6.024;2023-07-09T10:55:21;32.90;90.10
52459;DHT22;38372;52.902;6.024;2023-07-09T10:58:10;33.00;90.00
52459;DHT22;38372;52.902;6.024;2023-07-09T11:00:40;33.20;88.60
52459;DHT22;38372;52.902;6.024;2023-07-09T11:03:21;33.50;89.70
52459;DHT22;38372;52.902;6.024;2023-07-09T11:05:49;33.60;88.20
52459;DHT22;38372;52.902;6.024;2023-07-09T11:08:24;33.70;88.90
52459;DHT22;38372;52.902;6.024;2023-07-09T11:10:59;33.90;87.80
52459;DHT22;38372;52.902;6.024;2023-07-09T11:13:37;33.90;86.00
52459;DHT22;38372;52.902;6.024;2023-07-09T11:16:05;33.70;86.60
52459;DHT22;38372;52.902;6.024;2023-07-09T11:18:33;33.60;87.60
52459;DHT22;38372;52.902;6.024;2023-07-09T11:21:08;33.70;87.80
52459;DHT22;38372;52.902;6.024;2023-07-09T11:24:00;33.80;86.50
52459;DHT22;38372;52.902;6.024;2023-07-09T11:26:31;33.90;87.40
52459;DHT22;38372;52.902;6.024;2023-07-09T11:31:44;34.20;86.80
52459;DHT22;38372;52.902;6.024;2023-07-09T11:36:51;34.50;86.60
52459;DHT22;38372;52.902;6.024;2023-07-09T11:42:33;34.60;86.40
52459;DHT22;38372;52.902;6.024;2023-07-09T11:45:09;34.70;84.60
52459;DHT22;38372;52.902;6.024;2023-07-09T11:50:24;34.80;84.10
52459;DHT22;38372;52.902;6.024;2023-07-09T11:55:50;34.80;81.60
52459;DHT22;38372;52.902;6.024;2023-07-09T11:58:17;34.60;82.80
52459;DHT22;38372;52.902;6.024;2023-07-09T12:00:49;34.50;83.30
52459;DHT22;38372;52.902;6.024;2023-07-09T12:03:39;34.50;84.70
52459;DHT22;38372;52.902;6.024;2023-07-09T12:06:21;34.50;83.60
52459;DHT22;38372;52.902;6.024;2023-07-09T12:08:49;34.60;83.30
52459;DHT22;38372;52.902;6.024;2023-07-09T12:13:44;34.80;84.10
52459;DHT22;38372;52.902;6.024;2023-07-09T12:16:23;34.80;84.40
52459;DHT22;38372;52.902;6.024;2023-07-09T12:18:49;34.90;82.40
52459;DHT22;38372;52.902;6.024;2023-07-09T12:21:15;35.00;82.20
52459;DHT22;38372;52.902;6.024;2023-07-09T12:23:42;34.90;80.20
52459;DHT22;38372;52.902;6.024;2023-07-09T12:26:14;34.70;80.90
52459;DHT22;38372;52.902;6.024;2023-07-09T12:28:49;34.50;80.20
52459;DHT22;38372;52.902;6.024;2023-07-09T12:31:16;34.10;79.70
52459;DHT22;38372;52.902;6.024;2023-07-09T12:33:50;33.80;81.40
52459;DHT22;38372;52.902;6.024;2023-07-09T12:36:18;33.70;82.60
52459;DHT22;38372;52.902;6.024;2023-07-09T12:38:50;33.70;83.00
52459;DHT22;38372;52.902;6.024;2023-07-09T12:41:29;33.70;83.10
52459;DHT22;38372;52.902;6.024;2023-07-09T12:43:58;33.60;83.00
52459;DHT22;38372;52.902;6.024;2023-07-09T12:46:25;33.60;83.70
52459;DHT22;38372;52.902;6.024;2023-07-09T12:48:54;33.40;83.90
52459;DHT22;38372;52.902;6.024;2023-07-09T12:51:23;33.30;84.50
52459;DHT22;38372;52.902;6.024;2023-07-09T12:54:12;33.20;84.60
52459;DHT22;38372;52.902;6.024;2023-07-09T12:56:38;33.10;84.90
52459;DHT22;38372;52.902;6.024;2023-07-09T12:59:28;32.80;85.60
52459;DHT22;38372;52.902;6.024;2023-07-09T13:02:16;32.70;88.00
52459;DHT22;38372;52.902;6.024;2023-07-09T13:04:43;32.80;88.90
52459;DHT22;38372;52.902;6.024;2023-07-09T13:09:55;33.30;86.90
52459;DHT22;38372;52.902;6.024;2023-07-09T13:12:29;33.40;87.00
52459;DHT22;38372;52.902;6.024;2023-07-09T13:14:56;33.50;87.20
52459;DHT22;38372;52.902;6.024;2023-07-09T13:17:22;33.50;86.70
52459;DHT22;38372;52.902;6.024;2023-07-09T13:19:48;33.30;86.50
52459;DHT22;38372;52.902;6.024;2023-07-09T13:22:17;33.20;85.90
52459;DHT22;38372;52.902;6.024;2023-07-09T13:24:44;32.80;85.20
52459;DHT22;38372;52.902;6.024;2023-07-09T13:27:14;32.50;86.80
52459;DHT22;38372;52.902;6.024;2023-07-09T13:29:41;32.40;86.60
52459;DHT22;38372;52.902;6.024;2023-07-09T13:32:14;32.70;86.80
52459;DHT22;38372;52.902;6.024;2023-07-09T13:34:41;32.90;87.20
52459;DHT22;38372;52.902;6.024;2023-07-09T13:37:15;33.10;87.20
52459;DHT22;38372;52.902;6.024;2023-07-09T13:39:42;33.00;85.50
52459;DHT22;38372;52.902;6.024;2023-07-09T13:42:17;32.80;85.80
52459;DHT22;38372;52.902;6.024;2023-07-09T13:44:44;32.70;85.50
52459;DHT22;38372;52.902;6.024;2023-07-09T13:47:16;32.60;84.80
52459;DHT22;38372;52.902;6.024;2023-07-09T13:49:44;32.30;84.70
52459;DHT22;38372;52.902;6.024;2023-07-09T13:52:16;32.10;84.90
52459;DHT22;38372;52.902;6.024;2023-07-09T13:54:42;31.80;84.30
52459;DHT22;38372;52.902;6.024;2023-07-09T13:57:15;31.60;84.40
52459;DHT22;38372;52.902;6.024;2023-07-09T13:59:41;31.50;83.50
52459;DHT22;38372;52.902;6.024;2023-07-09T14:02:28;31.40;83.90
52459;DHT22;38372;52.902;6.024;2023-07-09T14:05:03;31.50;85.40
52459;DHT22;38372;52.902;6.024;2023-07-09T14:07:32;31.60;84.40
52459;DHT22;38372;52.902;6.024;2023-07-09T14:09:59;31.50;83.70
52459;DHT22;38372;52.902;6.024;2023-07-09T14:12:26;31.30;83.50
52459;DHT22;38372;52.902;6.024;2023-07-09T14:14:53;31.00;83.60
52459;DHT22;38372;52.902;6.024;2023-07-09T14:17:21;30.70;84.00
52459;DHT22;38372;52.902;6.024;2023-07-09T14:19:48;30.20;84.30
52459;DHT22;38372;52.902;6.024;2023-07-09T14:22:30;29.90;84.00
52459;DHT22;38372;52.902;6.024;2023-07-09T14:24:58;29.50;84.60
52459;DHT22;38372;52.902;6.024;2023-07-09T14:27:24;29.00;85.20
52459;DHT22;38372;52.902;6.024;2023-07-09T14:29:50;28.60;86.00
52459;DHT22;38372;52.902;6.024;2023-07-09T14:35:02;27.80;87.30
52459;DHT22;38372;52.902;6.024;2023-07-09T14:37:28;27.40;88.00
52459;DHT22;38372;52.902;6.024;2023-07-09T14:39:54;26.80;90.40
52459;DHT22;38372;52.902;6.024;2023-07-09T14:42:20;26.20;92.10
52459;DHT22;38372;52.902;6.024;2023-07-09T14:44:48;25.30;93.70
52459;DHT22;38372;52.902;6.024;2023-07-09T14:47:20;24.40;96.00
52459;DHT22;38372;52.902;6.024;2023-07-09T14:49:48;23.30;97.70
52459;DHT22;38372;52.902;6.024;2023-07-09T14:52:18;22.50;99.90
52459;DHT22;38372;52.902;6.024;2023-07-09T14:54:46;22.10;99.90
52459;DHT22;38372;52.902;6.024;2023-07-09T14:57:23;21.90;99.90
52459;DHT22;38372;52.902;6.024;2023-07-09T14:59:50;21.60;99.90
52459;DHT22;38372;52.902;6.024;2023-07-09T15:02:36;21.50;99.90
52459;DHT22;38372;52.902;6.024;2023-07-09T15:05:06;21.50;99.90
52459;DHT22;38372;52.902;6.024;2023-07-09T15:07:32;21.50;99.90
52459;DHT22;38372;52.902;6.024;2023-07-09T15:10:01;21.50;99.90
52459;DHT22;38372;52.902;6.024;2023-07-09T15:12:32;21.50;99.90
52459;DHT22;38372;52.902;6.024;2023-07-09T15:17:32;21.60;99.90
52459;DHT22;38372;52.902;6.024;2023-07-09T15:19:57;21.70;99.90
52459;DHT22;38372;52.902;6.024;2023-07-09T15:22:34;21.80;99.90
52459;DHT22;38372;52.902;6.024;2023-07-09T15:25:01;21.80;99.90
52459;DHT22;38372;52.902;6.024;2023-07-09T15:27:27;21.70;99.90
52459;DHT22;38372;52.902;6.024;2023-07-09T15:29:53;21.70;99.90
52459;DHT22;38372;52.902;6.024;2023-07-09T15:32:20;21.70;99.90
52459;DHT22;38372;52.902;6.024;2023-07-09T15:34:46;21.70;99.90
52459;DHT22;38372;52.902;6.024;2023-07-09T15:37:13;21.70;99.90
52459;DHT22;38372;52.902;6.024;2023-07-09T15:39:40;21.60;99.90
52459;DHT22;38372;52.902;6.024;2023-07-09T15:42:13;21.60;99.90
52459;DHT22;38372;52.902;6.024;2023-07-09T15:44:40;21.60;99.90
52459;DHT22;38372;52.902;6.024;2023-07-09T15:47:13;21.50;99.90
52459;DHT22;38372;52.902;6.024;2023-07-09T15:49:41;21.50;99.90
52459;DHT22;38372;52.902;6.024;2023-07-09T15:52:08;21.40;99.90
52459;DHT22;38372;52.902;6.024;2023-07-09T15:54:34;21.40;99.90
52459;DHT22;38372;52.902;6.024;2023-07-09T15:57:00;21.30;99.90
52459;DHT22;38372;52.902;6.024;2023-07-09T15:59:35;21.30;99.90
52459;DHT22;38372;52.902;6.024;2023-07-09T16:02:09;21.20;99.90
52459;DHT22;38372;52.902;6.024;2023-07-09T16:04:35;21.20;99.90
52459;DHT22;38372;52.902;6.024;2023-07-09T16:07:01;21.10;99.90
52459;DHT22;38372;52.902;6.024;2023-07-09T16:09:27;21.10;99.90
52459;DHT22;38372;52.902;6.024;2023-07-09T16:11:53;21.00;99.90
52459;DHT22;38372;52.902;6.024;2023-07-09T16:14:32;21.00;99.90
52459;DHT22;38372;52.902;6.024;2023-07-09T16:17:00;20.90;99.90
52459;DHT22;38372;52.902;6.024;2023-07-09T16:19:28;20.90;99.90
52459;DHT22;38372;52.902;6.024;2023-07-09T16:21:59;20.80;99.90
52459;DHT22;38372;52.902;6.024;2023-07-09T16:24:31;20.80;99.90
52459;DHT22;38372;52.902;6.024;2023-07-09T16:27:00;20.70;99.90
52459;DHT22;38372;52.902;6.024;2023-07-09T16:29:31;20.60;99.90
52459;DHT22;38372;52.902;6.024;2023-07-09T16:31:58;20.50;99.90
52459;DHT22;38372;52.902;6.024;2023-07-09T16:34:26;20.50;99.90